Latest Weather Observations for Coles Point

IDS60801

Issued at 12:31 pm CDT Saturday 21 January 2017 (issued every 30 minutes, with the page automatically refreshed every 10 minutes)

About weather observations | Map of weather stations | Latest weather observations for SA | Other Formats
Station Details ID: 018191 Name: COLES POINT Lat: -34.37 Lon: 135.37 Height: 28.0 m
Data from the previous 72 hours. | See also: Recent months at Coles Point
Date/Time
CDT
Temp
°C
App
Temp
°C
Dew
Point
°C
Rel
Hum
%
Delta-T
°C
Wind Press
QNH
hPa
Press
MSL
hPa
Rain since
9am
mm
Dir  Spd
km/h
Gust
km/h
Spd
kts
Gust
kts
21/12:30pm 22.3 19.7 12.0 52 5.8 WSW 17 20 9 11 1013.8 1013.7 0.0
21/12:00pm 23.0 21.2 12.0 50 6.2 SW 13 20 7 11 1013.9 1013.8 0.0
21/11:30am 23.8 23.4 12.4 48 6.5 S 6 11 3 6 1014.2 1014.1 0.0
21/11:00am 22.8 21.6 11.5 49 6.3 ENE 9 20 5 11 1014.4 1014.3 0.0
21/10:30am 21.8 20.0 10.9 50 6.0 ENE 11 20 6 11 1014.6 1014.5 0.0
21/10:00am 21.5 19.0 11.2 52 5.7 E 15 24 8 13 1014.6 1014.5 0.0
21/09:30am 20.1 17.6 11.1 56 4.9 E 15 28 8 15 1014.9 1014.8 0.0
21/09:00am 19.3 16.9 11.3 60 4.4 ENE 15 19 8 10 1015.1 1015.0 0.0
21/08:30am 18.4 16.1 11.7 65 3.7 E 15 24 8 13 1014.8 1014.7 0.0
21/08:00am 17.3 16.1 12.8 75 2.5 E 11 17 6 9 1014.6 1014.5 0.0
21/07:30am 16.0 15.9 14.0 88 1.1 E 7 13 4 7 1014.6 1014.5 0.0
21/07:00am 13.9 13.4 12.6 92 0.7 ENE 7 9 4 5 1014.1 1014.0 0.0
21/06:30am 13.5 12.4 12.1 91 0.8 E 9 13 5 7 1013.8 1013.7 0.0
21/06:00am 14.1 13.2 12.5 90 0.9 E 9 13 5 7 1013.7 1013.6 0.0
21/05:30am 14.1 12.8 12.5 90 0.9 ESE 11 15 6 8 1013.4 1013.3 0.0
21/05:00am 14.1 12.7 12.3 89 1.0 ESE 11 13 6 7 1013.2 1013.1 0.0
21/04:30am 14.3 13.1 12.7 90 0.9 ESE 11 13 6 7 1013.1 1013.0 0.0
21/04:00am 13.7 13.5 11.8 88 1.0 E 4 6 2 3 1013.2 1013.1 0.0
21/03:30am 13.9 13.8 12.1 89 1.0 E 4 7 2 4 1013.2 1013.1 0.0
21/03:00am 13.7 13.2 12.1 90 0.9 ESE 6 9 3 5 1013.5 1013.4 0.0
21/02:30am 13.7 13.5 11.9 89 1.0 SSE 4 7 2 4 1013.6 1013.5 0.0
21/02:00am 14.1 13.0 12.1 88 1.1 SSE 9 11 5 6 1013.4 1013.3 0.0
21/01:30am 14.4 13.4 12.3 87 1.1 SSE 9 11 5 6 1013.4 1013.3 0.0
21/01:00am 14.4 13.7 12.1 86 1.2 SE 7 11 4 6 1013.6 1013.5 0.0
21/12:30am 14.9 13.6 12.6 86 1.3 SSE 11 15 6 8 1013.7 1013.6 0.0
21/12:00am 14.7 13.8 12.6 87 1.1 SSE 9 13 5 7 1013.8 1013.7 0.0
 
Date/Time
CDT
Temp
°C
App
Temp
°C
Dew
Point
°C
Rel
Hum
%
Delta-T
°C
Wind Press
QNH
hPa
Press
MSL
hPa
Rain since
9am
mm
Dir  Spd
km/h
Gust
km/h
Spd
kts
Gust
kts
20/11:30pm 14.4 13.2 11.6 83 1.5 S 9 11 5 6 1013.7 1013.6 0.0
20/11:00pm 15.2 14.4 11.8 80 1.8 SSE 7 11 4 6 1013.7 1013.6 0.0
20/10:30pm 15.8 14.3 12.0 78 2.1 SSE 11 15 6 8 1013.3 1013.2 0.0
20/10:00pm 15.9 14.3 11.7 76 2.3 SSE 11 13 6 7 1013.0 1012.9 0.0
20/09:30pm 16.4 14.1 11.6 73 2.6 S 15 19 8 10 1012.8 1012.7 0.0
20/09:00pm 16.8 14.0 11.5 71 2.9 S 17 22 9 12 1012.4 1012.3 0.0
20/08:30pm 17.6 14.3 11.6 68 3.3 S 20 32 11 17 1012.1 1012.0 0.0
20/08:00pm 18.6 15.1 12.1 66 3.6 S 22 32 12 17 1011.7 1011.6 0.0
20/07:30pm 19.0 14.3 12.0 64 3.9 SSW 28 35 15 19 1011.1 1011.0 0.0
20/07:00pm 19.9 15.6 11.9 60 4.4 SSW 26 33 14 18 1010.6 1010.5 0.0
20/06:30pm 20.8 16.6 12.5 59 4.7 SSW 26 33 14 18 1010.4 1010.3 0.0
20/06:00pm 20.7 16.3 11.6 56 5.1 SSW 26 33 14 18 1010.3 1010.2 0.0
20/05:30pm 21.1 17.0 12.8 59 4.7 SSW 26 32 14 17 1010.3 1010.2 0.0
20/05:00pm 21.1 17.0 12.8 59 4.7 SSW 26 33 14 18 1010.4 1010.3 0.0
20/04:30pm 21.6 17.5 12.7 57 5.1 SSW 26 33 14 18 1010.3 1010.2 0.0
20/04:00pm 21.4 16.8 12.3 56 5.1 SSW 28 35 15 19 1010.0 1009.9 0.0
20/03:30pm 21.7 17.4 12.0 54 5.5 SW 26 32 14 17 1009.9 1009.8 0.0
20/03:00pm 22.8 18.4 11.8 50 6.2 SSW 26 33 14 18 1010.0 1009.9 0.0
20/02:30pm 22.0 17.6 11.7 52 5.8 SW 26 33 14 18 1010.0 1009.9 0.0
20/02:00pm 22.5 18.3 12.4 52 5.7 SSW 26 32 14 17 1010.1 1010.0 0.0
20/01:30pm 21.8 17.5 12.1 54 5.5 SSW 26 32 14 17 1010.1 1010.0 0.0
20/01:00pm 21.6 18.3 12.7 57 5.1 SSW 22 32 12 17 1010.1 1010.0 0.0
20/12:30pm 21.6 16.9 10.7 50 6.0 SSW 26 32 14 17 1010.0 1009.9 0.0
20/12:00pm 20.5 16.8 11.4 56 5.0 SSW 22 33 12 18 1009.8 1009.7 0.0
20/11:30am 19.9 16.8 12.2 61 4.3 S 20 28 11 15 1009.5 1009.4 0.0
20/11:00am 19.3 15.7 13.0 67 3.6 S 24 33 13 18 1009.1 1009.0 0.0
20/10:30am 19.3 15.1 12.3 64 3.9 S 26 35 14 19 1008.8 1008.7 0.0
20/10:00am 18.8 14.6 12.5 67 3.5 SSE 26 35 14 19 1008.5 1008.4 0.0
20/09:30am 17.5 13.9 14.2 81 1.9 S 26 35 14 19 1008.4 1008.3 0.0
20/09:00am 16.9 14.6 14.7 87 1.3 S 20 30 11 16 1008.2 1008.1 2.6
20/08:30am 17.3 15.0 14.0 81 1.9 S 19 30 10 16 1007.8 1007.7 2.6
20/08:00am 16.7 13.5 14.3 86 1.4 S 24 33 13 18 1007.3 1007.2 2.6
20/07:30am 16.7 14.5 14.3 86 1.4 S 19 30 10 16 1006.5 1006.4 2.6
20/07:00am 16.6 13.3 13.9 84 1.5 S 24 33 13 18 1005.8 1005.7 2.6
20/06:30am 16.5 13.3 14.2 86 1.3 S 24 32 13 17 1005.4 1005.3 2.6
20/06:00am 16.6 14.0 14.8 89 1.0 S 22 35 12 19 1004.9 1004.8 2.6
20/05:30am 16.6 13.8 15.3 92 0.8 S 24 33 13 18 1004.2 1004.1 2.6
20/05:00am 16.6 14.5 16.1 97 0.3 S 22 35 12 19 1003.8 1003.7 2.6
20/04:30am 16.8 14.3 16.2 96 0.4 SSW 24 35 13 19 1003.4 1003.3 2.4
20/04:00am 16.9 14.0 16.1 95 0.5 SSW 26 35 14 19 1003.4 1003.3 2.4
20/03:30am 17.1 15.8 16.8 98 0.2 SSW 19 26 10 14 1003.3 1003.2 2.4
20/03:00am 16.9 16.3 16.7 99 0.1 SW 15 20 8 11 1003.1 1003.0 2.4
20/02:30am 16.6 16.5 16.1 97 0.3 SW 11 15 6 8 1002.4 1002.3 2.4
20/02:00am 17.1 18.2 16.6 97 0.3 SW 6 7 3 4 1002.4 1002.3 2.4
20/01:30am 17.4 16.8 16.6 95 0.5 SW 15 19 8 10 1002.2 1002.1 2.4
20/01:00am 17.6 18.5 16.5 93 0.7 NW 7 11 4 6 1001.6 1001.5 2.4
20/12:30am 17.5 17.1 16.2 92 0.8 NNE 13 17 7 9 1001.0 1000.9 2.4
20/12:00am 17.7 17.0 16.4 92 0.8 NNE 15 19 8 10 1000.7 1000.6 2.4
 
Date/Time
CDT
Temp
°C
App
Temp
°C
Dew
Point
°C
Rel
Hum
%
Delta-T
°C
Wind Press
QNH
hPa
Press
MSL
hPa
Rain since
9am
mm
Dir  Spd
km/h
Gust
km/h
Spd
kts
Gust
kts
19/11:30pm 17.5 17.7 16.7 95 0.5 E 11 19 6 10 1000.9 1000.8 2.4
19/11:00pm 17.4 15.9 16.3 93 0.7 SE 19 24 10 13 1001.8 1001.7 2.0
19/10:30pm 17.7 15.1 15.9 89 1.1 SSE 24 37 13 20 1001.7 1001.6 1.2
19/10:06pm 17.9 13.9 16.1 89 1.1 SSE 32 50 17 27 1001.4 1001.3 1.0
19/10:00pm 18.0 13.8 16.3 90 1.0 SSE 33 50 18 27 1001.6 1001.5 1.0
19/09:50pm 18.1 14.2 16.4 90 1.0 S 32 50 17 27 1001.9 1001.8 1.0
19/09:30pm 18.2 14.3 16.4 89 1.1 S 32 46 17 25 1001.4 1001.3 1.0
19/09:00pm 18.5 14.7 17.2 92 0.8 S 33 50 18 27 1001.3 1001.2 1.0
19/08:30pm 19.1 15.3 16.7 86 1.5 S 32 43 17 23 1001.1 1001.0 0.0
19/08:00pm 19.9 16.9 16.9 83 1.8 S 28 41 15 22 1001.3 1001.2 0.0
19/07:30pm 20.9 17.0 16.9 78 2.4 SSW 33 50 18 27 1000.8 1000.7 0.0
19/07:26pm 20.8 18.1 16.6 77 2.5 SW 26 46 14 25 1000.8 1000.7 0.0
19/07:00pm 23.3 22.5 17.1 68 3.8 SW 17 24 9 13 999.4 999.3 0.0
19/06:54pm 24.2 23.2 16.7 63 4.6 SW 17 24 9 13 998.6 998.5 0.0
19/06:30pm 29.7 31.3 18.2 50 7.4 SW 7 9 4 5 997.2 997.1 0.0
19/06:00pm 30.6 31.5 18.3 47 8.0 SW 11 15 6 8 997.0 996.9 0.0
19/05:30pm 30.3 30.1 16.7 44 8.6 WSW 13 19 7 10 996.9 996.8 0.0
19/05:26pm 31.6 30.9 16.4 40 9.6 SW 15 20 8 11 996.8 996.7 0.0
19/05:00pm 36.6 35.8 17.2 31 12.5 SW 17 20 9 11 996.8 996.7 0.0
19/04:30pm 36.4 36.9 17.5 32 12.3 SW 11 17 6 9 997.1 997.0 0.0
19/04:00pm 34.6 34.8 18.6 38 10.5 SW 15 20 8 11 998.2 998.1 0.0
19/03:30pm 32.3 31.1 17.0 40 9.8 SW 19 22 10 12 999.0 998.9 0.0
19/03:00pm 33.0 33.6 16.8 38 10.3 SW 9 13 5 7 999.7 999.6 0.0
19/02:30pm 30.3 29.8 17.0 44 8.4 SW 15 20 8 11 1000.9 1000.8 0.0
19/02:00pm 30.8 30.0 17.1 43 8.7 SW 17 20 9 11 1001.4 1001.3 0.0
19/01:30pm 30.4 30.4 17.1 44 8.4 SW 13 17 7 9 1002.2 1002.1 0.0
19/01:00pm 29.2 28.5 17.4 49 7.5 SW 17 22 9 12 1003.2 1003.1 0.0
19/12:30pm 30.3 30.8 15.6 41 9.1 SE 7 13 4 7 1004.0 1003.9 0.0
19/12:00pm 32.3 31.9 15.3 35 10.6 NE 11 17 6 9 1004.5 1004.4 0.0
19/11:30am 30.9 30.0 14.9 37 9.8 NE 13 19 7 10 1004.9 1004.8 0.0
19/11:00am 29.3 29.0 16.5 46 8.0 NE 13 20 7 11 1005.5 1005.4 0.0
19/10:30am 27.0 26.5 16.0 51 6.8 NE 13 24 7 13 1006.2 1006.1 0.0
19/10:00am 25.9 24.2 16.2 55 6.0 NE 20 28 11 15 1006.4 1006.3 0.0
19/09:30am 23.6 22.2 15.6 61 4.8 ENE 17 24 9 13 1006.8 1006.7 0.0
19/09:00am 21.7 19.4 15.8 69 3.5 ENE 22 32 12 17 1006.8 1006.7 0.2
19/08:30am 21.0 20.0 15.5 71 3.3 E 15 24 8 13 1007.5 1007.4 0.2
19/08:00am 19.6 19.9 15.9 79 2.2 ENE 9 11 5 6 1007.8 1007.7 0.2
19/07:30am 18.6 20.0 15.5 82 1.8 NNW 2 6 1 3 1007.8 1007.7 0.2
19/07:00am 18.2 18.8 15.3 83 1.7 W 6 13 3 7 1007.6 1007.5 0.2
19/06:30am 18.2 14.7 15.5 84 1.6 NE 28 33 15 18 1006.6 1006.5 0.2
19/06:00am 18.5 15.0 14.6 78 2.3 NE 26 37 14 20 1007.0 1006.9 0.0
19/05:30am 18.8 17.7 14.3 75 2.6 ENE 13 19 7 10 1008.2 1008.1 0.0
19/05:00am 17.7 18.8 13.6 77 2.3 CALM 0 0 0 0 1008.5 1008.4 0.0
19/04:30am 17.7 18.1 13.6 77 2.3 SW 4 6 2 3 1009.1 1009.0 0.0
19/04:00am 17.7 18.8 13.4 76 2.4 CALM 0 0 0 0 1009.1 1009.0 0.0
19/03:30am 17.9 17.6 13.4 75 2.5 E 7 9 4 5 1009.4 1009.3 0.0
19/03:00am 17.6 17.4 13.1 75 2.5 E 6 7 3 4 1009.9 1009.8 0.0
19/02:30am 17.7 17.9 13.2 75 2.5 ESE 4 6 2 3 1010.5 1010.4 0.0
19/02:00am 17.8 17.4 12.9 73 2.7 ESE 7 13 4 7 1010.7 1010.6 0.0
19/01:30am 18.2 17.4 12.9 71 3.0 E 9 13 5 7 1011.0 1010.9 0.0
19/01:00am 18.3 17.1 12.7 70 3.1 ESE 11 15 6 8 1011.4 1011.3 0.0
19/12:30am 18.1 16.7 12.3 69 3.2 ESE 11 17 6 9 1011.6 1011.5 0.0
19/12:00am 18.3 16.2 12.3 68 3.3 E 15 20 8 11 1011.9 1011.8 0.0
 
Date/Time
CDT
Temp
°C
App
Temp
°C
Dew
Point
°C
Rel
Hum
%
Delta-T
°C
Wind Press
QNH
hPa
Press
MSL
hPa
Rain since
9am
mm
Dir  Spd
km/h
Gust
km/h
Spd
kts
Gust
kts
18/11:30pm 18.2 16.1 12.4 69 3.2 ESE 15 22 8 12 1012.2 1012.1 0.0
18/11:00pm 18.1 17.2 12.5 70 3.1 ESE 9 17 5 9 1012.3 1012.2 0.0
18/10:30pm 18.2 16.9 12.4 69 3.2 ESE 11 17 6 9 1012.7 1012.6 0.0
18/10:00pm 18.6 15.6 12.6 68 3.4 ESE 20 28 11 15 1012.8 1012.7 0.0
18/09:30pm 18.8 16.1 12.8 68 3.4 ESE 19 28 10 15 1013.0 1012.9 0.0
18/09:00pm 19.3 16.3 12.6 65 3.8 SE 20 32 11 17 1012.6 1012.5 0.0
18/08:30pm 20.1 16.5 11.8 59 4.6 SE 22 32 12 17 1012.4 1012.3 0.0
18/08:00pm 21.9 18.3 11.9 53 5.6 SE 22 30 12 16 1012.5 1012.4 0.0
18/07:30pm 21.8 17.8 11.8 53 5.6 ESE 24 32 13 17 1012.2 1012.1 0.0
18/07:00pm 22.8 19.8 12.1 51 6.1 ESE 19 28 10 15 1012.3 1012.2 0.0
18/06:30pm 24.0 20.3 12.6 49 6.5 ESE 24 33 13 18 1012.2 1012.1 0.0
18/06:00pm 24.1 19.9 12.4 48 6.7 SE 26 32 14 17 1012.5 1012.4 0.0
18/05:30pm 24.1 20.2 12.1 47 6.8 ESE 24 32 13 17 1012.7 1012.6 0.0
18/05:00pm 24.3 20.8 12.3 47 6.9 ESE 22 32 12 17 1012.9 1012.8 0.0
18/04:30pm 24.9 21.0 12.2 45 7.3 ESE 24 33 13 18 1012.9 1012.8 0.0
18/04:00pm 24.7 19.7 12.3 46 7.1 SE 30 39 16 21 1012.9 1012.8 0.0
18/03:30pm 25.0 20.2 11.6 43 7.6 ESE 28 39 15 21 1013.0 1012.9 0.0
18/03:00pm 26.2 22.7 12.3 42 8.0 SE 22 32 12 17 1012.9 1012.8 0.0
18/02:30pm 26.2 22.4 12.3 42 8.0 ESE 24 35 13 19 1013.1 1013.0 0.0
18/02:00pm 24.4 18.4 10.7 42 7.6 ESE 33 41 18 22 1013.6 1013.5 0.0
18/01:30pm 25.0 20.8 11.2 42 7.8 SE 24 35 13 19 1014.2 1014.1 0.0
18/01:00pm 25.2 20.3 11.4 42 7.8 SE 28 44 15 24 1014.3 1014.2 0.0

Other Formats:

Comma delimited format used in spreadsheet applications
http://www.bom.gov.au/fwo/IDS60801/IDS60801.94658.axf

JavaScript Object Notation format (JSON) in row-major order
http://www.bom.gov.au/fwo/IDS60801/IDS60801.94658.json